Airfield :
LOGIN :

Register | Disclaimer

   EN    FR    IT 

 










Legend :    VFR   Marginal VFR   IFR   Intensive IFR   Very Intensive IFR
Visi :
Ceiling :
>= 8 km
>= 3000ft
5 to 8 km
1000 to 3000 ft
1500m to 5 km
500 to 1000 ft
800 to 1500m
200 to 500 ft
< 800m
< 200 ft
Symbols :   Thunderstorms  Fog  Heavy snow  Heavy precipitations  Wind > 20 kt
SIGMETs :     Misc.  Thunderstorms  Icing  Turbulence  Mountain Waves  Volcanic Ashes






- Airport Elevation : 794 ft


LKCV - Čáslav Air Base

CURRENT METAR :
  • 151430Z 21005KT 140V280 CAVOK 31/15 Q1013 NOSIG RMK BLU BLU

EXPIRED METARs :
  • 151400Z 21008KT 150V250 CAVOK 31/13 Q1013 NOSIG RMK BLU BLU
  • 151330Z 09003KT 010V150 CAVOK 31/14 Q1013 NOSIG RMK BLU BLU
  • 151300Z 12005KT 090V170 CAVOK 30/13 Q1013 NOSIG RMK BLU BLU
  • 151230Z 10005KT 030V150 CAVOK 30/14 Q1014 NOSIG RMK BLU BLU
  • 151200Z 13005KT 100V160 CAVOK 30/15 Q1014 NOSIG RMK BLU BLU
  • 151130Z VRB02KT CAVOK 30/13 Q1014 NOSIG RMK BLU BLU
  • 151100Z VRB02KT CAVOK 30/13 Q1014 NOSIG RMK BLU BLU
  • 151030Z 20004KT 130V240 CAVOK 29/13 Q1014 NOSIG RMK BLU BLU
  • 151000Z VRB02KT CAVOK 28/13 Q1015 NOSIG RMK BLU BLU

TAF TAF LKCV
Valid from the 15 at 12:00 until the 16 at 12:00 UTC


151100Z 1512/1612 10005KT CAVOK
BECMG 1518/1520 16006KT
BECMG 1605/1607 28008KT SCT040
PROB40
TEMPO 1608/1612 29012G22KT 6000 SHRA BKN035CB



MET'MAP, your aeronautical weather chart ! - Copyright ORBIFLY December 2007 - Disclaimer

ORBIFLY MET'MAP TEAM :

Programming & Development : Alexandra Zaïnal
Original concept : Baudouin d'Aumeries
Technical & hardware support : Manuel Goepfert
Assistance : Marc-Olivier Méhu




SOURCES & CREDITS :

   NOAA